createdAt,value
2023-03-22T00:00:30.153Z,9.24
2023-03-22T00:03:22.893Z,9.23
2023-03-22T00:06:14.908Z,9.21
2023-03-22T00:09:07.232Z,9.18
2023-03-22T00:11:59.278Z,9.15
2023-03-22T00:14:52.207Z,9.10
2023-03-22T00:17:44.778Z,9.05
2023-03-22T00:20:23.831Z,8.99
2023-03-22T00:22:55.823Z,8.94
2023-03-22T00:25:30.485Z,8.91
2023-03-22T00:28:22.830Z,8.86
2023-03-22T00:31:04.612Z,8.83
2023-03-22T00:33:56.683Z,8.80
2023-03-22T00:36:49.026Z,8.78
2023-03-22T00:39:26.996Z,8.73
2023-03-22T00:42:19.043Z,8.66
2023-03-22T00:45:13.609Z,8.58
2023-03-22T00:47:48.627Z,8.51
2023-03-22T00:50:41.266Z,8.44
2023-03-22T00:53:35.192Z,8.38
2023-03-22T00:56:28.729Z,8.31
2023-03-22T00:59:09.500Z,8.24
2023-03-22T01:02:04.216Z,8.17
2023-03-22T01:04:46.322Z,8.13
2023-03-22T01:07:41.629Z,8.07
2023-03-22T01:10:33.650Z,8.02
2023-03-22T01:13:25.918Z,7.95
2023-03-22T01:16:18.819Z,7.91
2023-03-22T01:19:10.998Z,7.88
2023-03-22T01:22:03.404Z,7.85
2023-03-22T01:24:55.484Z,7.80
2023-03-22T01:27:42.604Z,7.76
2023-03-22T01:30:17.561Z,7.70
2023-03-22T01:32:52.508Z,7.65
2023-03-22T01:35:44.647Z,7.60
2023-03-22T01:38:19.400Z,7.56
2023-03-22T01:41:11.485Z,7.47
2023-03-22T01:44:17.606Z,7.39
2023-03-22T01:47:05.952Z,7.30
2023-03-22T01:49:58.001Z,7.24
2023-03-22T01:52:36.254Z,7.18
2023-03-22T01:55:28.874Z,7.14
2023-03-22T01:58:21.298Z,7.13
2023-03-22T02:00:59.419Z,7.11
2023-03-22T02:03:55.953Z,7.08
2023-03-22T02:06:48.660Z,7.07
2023-03-22T02:09:41.668Z,7.05
2023-03-22T02:12:42.826Z,7.03
2023-03-22T02:15:39.635Z,7.00
2023-03-22T02:18:54.602Z,6.98
2023-03-22T02:22:17.225Z,6.95
2023-03-22T02:25:25.266Z,6.92
2023-03-22T02:28:21.957Z,6.91
2023-03-22T02:31:20.363Z,6.88
2023-03-22T02:34:48.770Z,6.86
2023-03-22T02:38:05.367Z,6.85
2023-03-22T02:41:08.578Z,6.84
2023-03-22T02:43:54.904Z,6.83
2023-03-22T02:46:53.515Z,6.80
2023-03-22T02:49:54.239Z,6.77
2023-03-22T02:52:52.505Z,6.75
2023-03-22T02:55:39.091Z,6.73
2023-03-22T02:58:35.462Z,6.72
2023-03-22T03:01:36.407Z,6.71
2023-03-22T03:04:21.578Z,6.70
2023-03-22T03:07:17.744Z,6.70
2023-03-22T03:10:13.485Z,6.72
2023-03-22T03:13:05.631Z,6.74
2023-03-22T03:15:42.553Z,6.73
2023-03-22T03:18:45.586Z,6.70
2023-03-22T03:21:46.447Z,6.68
2023-03-22T03:24:46.192Z,6.68
2023-03-22T03:27:36.748Z,6.66
2023-03-22T03:30:33.184Z,6.64
2023-03-22T03:33:30.433Z,6.63
2023-03-22T03:36:24.343Z,6.65
2023-03-22T03:39:19.471Z,6.67
2023-03-22T03:42:16.552Z,6.68
2023-03-22T03:44:58.439Z,6.69
2023-03-22T03:47:56.913Z,6.70
2023-03-22T03:50:32.616Z,6.70
2023-03-22T03:53:22.839Z,6.71
2023-03-22T03:55:57.864Z,6.71
2023-03-22T03:58:46.084Z,6.72
2023-03-22T04:01:40.144Z,6.72
2023-03-22T04:04:30.393Z,6.72
2023-03-22T04:07:22.562Z,6.71
2023-03-22T04:10:14.852Z,6.71
2023-03-22T04:13:06.845Z,6.72
2023-03-22T04:16:02.130Z,6.73
2023-03-22T04:18:54.349Z,6.74
2023-03-22T04:21:47.064Z,6.74
2023-03-22T04:24:39.257Z,6.74
2023-03-22T04:27:31.277Z,6.74
2023-03-22T04:30:24.729Z,6.69
2023-03-22T04:33:07.864Z,6.68
2023-03-22T04:36:01.998Z,6.70
2023-03-22T04:38:39.471Z,6.72
2023-03-22T04:41:31.543Z,6.74
2023-03-22T04:44:23.703Z,6.74
2023-03-22T04:47:15.820Z,6.75
2023-03-22T04:50:09.381Z,6.76
2023-03-22T04:53:01.407Z,6.75
2023-03-22T04:55:42.993Z,6.76
2023-03-22T04:58:36.774Z,6.79
2023-03-22T05:01:13.678Z,6.81
2023-03-22T05:04:06.373Z,6.84
2023-03-22T05:06:41.144Z,6.86
2023-03-22T05:09:23.644Z,6.84
2023-03-22T05:12:16.073Z,6.85
2023-03-22T05:15:10.048Z,6.90
2023-03-22T05:17:44.419Z,6.96
2023-03-22T05:20:36.766Z,7.03
2023-03-22T05:23:28.936Z,7.09
2023-03-22T05:26:24.218Z,7.14
2023-03-22T05:29:06.846Z,7.16
2023-03-22T05:31:58.857Z,7.23
2023-03-22T05:34:42.801Z,7.27
2023-03-22T05:37:34.902Z,7.31
2023-03-22T05:40:13.432Z,7.31
2023-03-22T05:43:05.652Z,7.32
2023-03-22T05:45:57.740Z,7.37
2023-03-22T05:48:41.652Z,7.42
2023-03-22T05:51:25.598Z,7.48
2023-03-22T05:54:17.564Z,7.54
2023-03-22T05:57:09.530Z,7.60
2023-03-22T06:00:01.792Z,7.69
2023-03-22T06:02:56.488Z,7.78
2023-03-22T06:05:50.758Z,7.87
2023-03-22T06:08:33.239Z,7.94
2023-03-22T06:11:25.198Z,8.03
2023-03-22T06:14:17.313Z,8.11
2023-03-22T06:17:09.606Z,8.19
2023-03-22T06:19:44.457Z,8.25
2023-03-22T06:22:36.409Z,8.30
2023-03-22T06:25:28.625Z,8.36
2023-03-22T06:28:20.829Z,8.40
2023-03-22T06:30:52.909Z,8.43
2023-03-22T06:33:34.903Z,8.46
2023-03-22T06:36:26.764Z,8.48
2023-03-22T06:39:00.969Z,8.49
2023-03-22T06:41:53.249Z,8.50
2023-03-22T06:44:45.348Z,8.49
2023-03-22T06:47:37.429Z,8.51
2023-03-22T06:50:30.045Z,8.56
2023-03-22T06:53:22.086Z,8.60
2023-03-22T06:56:14.182Z,8.65
2023-03-22T06:59:06.235Z,8.72
2023-03-22T07:01:58.349Z,8.82
2023-03-22T07:04:34.236Z,8.94
2023-03-22T07:07:26.685Z,9.06
2023-03-22T07:10:07.887Z,9.16
2023-03-22T07:13:00.405Z,9.25
2023-03-22T07:15:55.806Z,9.32
2023-03-22T07:18:48.223Z,9.34
2023-03-22T07:21:40.474Z,9.33
2023-03-22T07:24:32.826Z,9.36
2023-03-22T07:27:24.913Z,9.42
2023-03-22T07:30:08.286Z,9.47
2023-03-22T07:33:01.421Z,9.52
2023-03-22T07:35:53.630Z,9.60
2023-03-22T07:38:28.603Z,9.69
2023-03-22T07:41:20.787Z,9.74
2023-03-22T07:44:11.190Z,9.79
2023-03-22T07:46:51.756Z,9.90
2023-03-22T07:49:43.819Z,10.04
2023-03-22T07:52:18.698Z,10.16
2023-03-22T07:55:12.509Z,10.31
2023-03-22T07:57:46.799Z,10.45
2023-03-22T08:00:25.124Z,10.55
2023-03-22T08:03:06.360Z,10.70
2023-03-22T08:05:40.679Z,10.89
2023-03-22T08:08:32.974Z,11.06
2023-03-22T08:11:10.565Z,11.16
2023-03-22T08:14:02.599Z,11.26
2023-03-22T08:16:54.711Z,11.37
2023-03-22T08:19:29.714Z,11.50
2023-03-22T08:22:26.154Z,11.61
2023-03-22T08:25:18.214Z,11.67
2023-03-22T08:28:10.367Z,11.73
2023-03-22T08:31:02.391Z,11.79
2023-03-22T08:33:54.445Z,11.82
2023-03-22T08:36:48.769Z,11.80
2023-03-22T08:39:41.175Z,11.77
2023-03-22T08:42:33.232Z,11.76
2023-03-22T08:45:25.688Z,11.73
2023-03-22T08:48:17.919Z,11.73
2023-03-22T08:50:55.615Z,11.71
2023-03-22T08:53:48.261Z,11.70
2023-03-22T08:56:41.762Z,11.71
2023-03-22T08:59:33.892Z,11.72
2023-03-22T09:02:26.339Z,11.74
2023-03-22T09:05:18.839Z,11.77
2023-03-22T09:08:18.374Z,11.79
2023-03-22T09:11:13.542Z,11.85
2023-03-22T09:13:54.762Z,11.95
2023-03-22T09:16:32.399Z,12.06
2023-03-22T09:19:24.488Z,12.17
2023-03-22T09:22:16.545Z,12.29
2023-03-22T09:24:53.620Z,12.41
2023-03-22T09:27:48.030Z,12.59
2023-03-22T09:30:40.411Z,12.77
2023-03-22T09:33:33.130Z,12.97
2023-03-22T09:36:25.367Z,13.12
2023-03-22T09:39:17.724Z,13.21
2023-03-22T09:41:58.489Z,13.36
2023-03-22T09:44:52.325Z,13.65
2023-03-22T09:47:48.161Z,13.88
2023-03-22T09:50:46.265Z,14.17
2023-03-22T09:53:38.554Z,14.54
2023-03-22T09:56:32.944Z,14.86
2023-03-22T09:59:35.128Z,15.04
2023-03-22T10:02:41.904Z,15.21
2023-03-22T10:05:41.510Z,15.56
2023-03-22T10:08:45.296Z,16.21
2023-03-22T10:11:46.184Z,17.00
2023-03-22T10:14:41.543Z,17.83
2023-03-22T10:17:32.664Z,19.10
2023-03-22T10:20:37.903Z,20.44
2023-03-22T10:23:19.208Z,22.02
2023-03-22T10:26:21.391Z,23.57
2023-03-22T10:29:20.139Z,24.61
2023-03-22T10:32:17.118Z,25.98
2023-03-22T10:34:59.710Z,27.30
2023-03-22T10:37:37.843Z,27.70
2023-03-22T10:40:18.123Z,27.61
2023-03-22T10:42:59.126Z,27.25
2023-03-22T10:45:52.005Z,26.93
2023-03-22T10:48:47.966Z,26.67
2023-03-22T10:51:46.341Z,26.50
2023-03-22T10:54:39.321Z,26.77
2023-03-22T10:57:13.468Z,27.16
2023-03-22T11:00:11.673Z,27.73
2023-03-22T11:03:06.399Z,28.04
2023-03-22T11:06:01.228Z,28.62
2023-03-22T11:08:46.558Z,29.79
2023-03-22T11:11:46.737Z,30.85
2023-03-22T11:14:44.230Z,30.97
2023-03-22T11:17:41.818Z,30.68
2023-03-22T11:20:36.048Z,31.18
2023-03-22T11:23:29.587Z,31.91
2023-03-22T11:26:29.754Z,32.89
2023-03-22T11:29:22.605Z,33.87
2023-03-22T11:32:27.749Z,34.59
2023-03-22T11:35:25.595Z,35.24
2023-03-22T11:38:30.795Z,35.54
2023-03-22T11:41:27.052Z,35.58
2023-03-22T11:44:22.753Z,35.81
2023-03-22T11:47:15.833Z,35.75
2023-03-22T11:50:11.126Z,35.95
2023-03-22T11:53:08.904Z,36.19
2023-03-22T11:56:01.393Z,36.19
2023-03-22T11:59:04.326Z,36.49
2023-03-22T12:02:04.417Z,36.73
2023-03-22T12:05:02.353Z,37.04
2023-03-22T12:08:00.469Z,37.35
2023-03-22T12:10:57.503Z,37.47
2023-03-22T12:13:36.669Z,37.15
2023-03-22T12:16:33.961Z,37.04
2023-03-22T12:19:23.109Z,37.25
2023-03-22T12:22:01.784Z,37.37
2023-03-22T12:24:36.697Z,37.37
2023-03-22T12:27:32.630Z,37.18
2023-03-22T12:30:27.006Z,37.10
2023-03-22T12:33:24.353Z,37.16
2023-03-22T12:36:21.062Z,36.07
2023-03-22T12:39:08.096Z,35.44
2023-03-22T12:41:54.004Z,35.50
2023-03-22T12:44:52.804Z,35.01
2023-03-22T12:48:01.364Z,35.03
2023-03-22T12:50:53.246Z,35.11
2023-03-22T12:53:48.539Z,35.16
2023-03-22T12:56:44.749Z,35.20
2023-03-22T12:59:37.724Z,34.88
2023-03-22T13:02:17.916Z,34.14
2023-03-22T13:05:12.440Z,33.07
2023-03-22T13:07:58.895Z,32.22
2023-03-22T13:11:06.024Z,31.24
2023-03-22T13:13:49.801Z,30.07
2023-03-22T13:16:43.457Z,29.18
2023-03-22T13:19:40.048Z,27.91
2023-03-22T13:22:21.040Z,26.96
2023-03-22T13:25:35.246Z,26.32
2023-03-22T13:28:28.173Z,25.67
2023-03-22T13:31:02.541Z,25.06
2023-03-22T13:33:44.693Z,24.49
2023-03-22T13:36:37.466Z,24.08
2023-03-22T13:39:16.619Z,23.79
2023-03-22T13:42:22.929Z,23.56
2023-03-22T13:45:05.792Z,23.33
2023-03-22T13:48:07.674Z,23.03
2023-03-22T13:51:09.214Z,22.67
2023-03-22T13:54:08.370Z,22.34
2023-03-22T13:57:01.678Z,22.12
2023-03-22T14:00:12.858Z,21.98
2023-03-22T14:02:53.227Z,21.83
2023-03-22T14:05:48.348Z,21.71
2023-03-22T14:08:43.194Z,21.52
2023-03-22T14:11:24.875Z,21.40
2023-03-22T14:14:20.698Z,21.28
2023-03-22T14:16:59.943Z,21.21
2023-03-22T14:19:53.336Z,21.17
